sensor_id;sensor_type;location;lat;lon;timestamp;P1;durP1;ratioP1;P2;durP2;ratioP2
19919;SDS011;10122;50.074;19.920;2023-06-14T00:02:03;11.45;;;6.70;;
19919;SDS011;10122;50.074;19.920;2023-06-14T00:04:29;10.02;;;6.40;;
19919;SDS011;10122;50.074;19.920;2023-06-14T00:06:56;9.30;;;6.57;;
19919;SDS011;10122;50.074;19.920;2023-06-14T00:09:22;12.63;;;6.32;;
19919;SDS011;10122;50.074;19.920;2023-06-14T00:11:48;8.85;;;6.13;;
19919;SDS011;10122;50.074;19.920;2023-06-14T00:14:14;11.75;;;7.20;;
19919;SDS011;10122;50.074;19.920;2023-06-14T00:16:40;9.38;;;6.55;;
19919;SDS011;10122;50.074;19.920;2023-06-14T00:19:07;9.20;;;6.70;;
19919;SDS011;10122;50.074;19.920;2023-06-14T00:21:35;11.50;;;6.40;;
19919;SDS011;10122;50.074;19.920;2023-06-14T00:24:01;10.35;;;6.75;;
19919;SDS011;10122;50.074;19.920;2023-06-14T00:26:27;9.48;;;6.53;;
19919;SDS011;10122;50.074;19.920;2023-06-14T00:28:53;10.75;;;6.05;;
19919;SDS011;10122;50.074;19.920;2023-06-14T00:31:19;9.25;;;6.20;;
19919;SDS011;10122;50.074;19.920;2023-06-14T00:33:45;11.23;;;6.38;;
19919;SDS011;10122;50.074;19.920;2023-06-14T00:36:11;10.32;;;6.38;;
19919;SDS011;10122;50.074;19.920;2023-06-14T00:38:37;9.75;;;6.53;;
19919;SDS011;10122;50.074;19.920;2023-06-14T00:41:03;10.43;;;6.68;;
19919;SDS011;10122;50.074;19.920;2023-06-14T00:43:28;9.93;;;6.47;;
19919;SDS011;10122;50.074;19.920;2023-06-14T00:45:54;11.07;;;7.20;;
19919;SDS011;10122;50.074;19.920;2023-06-14T00:48:20;9.43;;;5.95;;
19919;SDS011;10122;50.074;19.920;2023-06-14T00:50:46;11.15;;;6.22;;
19919;SDS011;10122;50.074;19.920;2023-06-14T00:53:17;11.25;;;6.53;;
19919;SDS011;10122;50.074;19.920;2023-06-14T00:55:43;10.25;;;6.60;;
19919;SDS011;10122;50.074;19.920;2023-06-14T00:58:09;9.68;;;6.63;;
19919;SDS011;10122;50.074;19.920;2023-06-14T01:00:36;10.93;;;6.85;;
19919;SDS011;10122;50.074;19.920;2023-06-14T01:03:01;9.93;;;6.60;;
19919;SDS011;10122;50.074;19.920;2023-06-14T01:05:28;11.60;;;6.65;;
19919;SDS011;10122;50.074;19.920;2023-06-14T01:10:47;9.10;;;6.57;;
19919;SDS011;10122;50.074;19.920;2023-06-14T01:13:24;11.50;;;7.13;;
19919;SDS011;10122;50.074;19.920;2023-06-14T01:16:01;11.20;;;7.30;;
19919;SDS011;10122;50.074;19.920;2023-06-14T01:18:28;10.32;;;6.53;;
19919;SDS011;10122;50.074;19.920;2023-06-14T01:20:55;12.52;;;7.25;;
19919;SDS011;10122;50.074;19.920;2023-06-14T01:23:21;10.05;;;6.72;;
19919;SDS011;10122;50.074;19.920;2023-06-14T01:25:48;9.90;;;6.60;;
19919;SDS011;10122;50.074;19.920;2023-06-14T01:28:17;10.88;;;7.13;;
19919;SDS011;10122;50.074;19.920;2023-06-14T01:30:51;11.73;;;7.05;;
19919;SDS011;10122;50.074;19.920;2023-06-14T01:33:19;11.07;;;7.50;;
19919;SDS011;10122;50.074;19.920;2023-06-14T01:35:47;11.75;;;7.40;;
19919;SDS011;10122;50.074;19.920;2023-06-14T01:38:15;12.57;;;7.38;;
19919;SDS011;10122;50.074;19.920;2023-06-14T01:40:44;11.65;;;7.45;;
19919;SDS011;10122;50.074;19.920;2023-06-14T01:43:11;12.45;;;7.72;;
19919;SDS011;10122;50.074;19.920;2023-06-14T01:45:40;11.88;;;6.75;;
19919;SDS011;10122;50.074;19.920;2023-06-14T01:48:07;11.20;;;7.28;;
19919;SDS011;10122;50.074;19.920;2023-06-14T01:50:33;13.32;;;7.28;;
19919;SDS011;10122;50.074;19.920;2023-06-14T01:53:00;12.93;;;7.13;;
19919;SDS011;10122;50.074;19.920;2023-06-14T01:55:25;10.93;;;7.13;;
19919;SDS011;10122;50.074;19.920;2023-06-14T01:57:52;11.70;;;7.30;;
19919;SDS011;10122;50.074;19.920;2023-06-14T02:00:18;11.75;;;7.03;;
19919;SDS011;10122;50.074;19.920;2023-06-14T02:02:45;12.20;;;7.18;;
19919;SDS011;10122;50.074;19.920;2023-06-14T02:05:11;11.70;;;6.88;;
19919;SDS011;10122;50.074;19.920;2023-06-14T02:07:36;13.50;;;7.88;;
19919;SDS011;10122;50.074;19.920;2023-06-14T02:10:05;14.50;;;7.97;;
19919;SDS011;10122;50.074;19.920;2023-06-14T02:12:32;10.43;;;6.45;;
19919;SDS011;10122;50.074;19.920;2023-06-14T02:14:57;14.73;;;7.72;;
19919;SDS011;10122;50.074;19.920;2023-06-14T02:17:23;11.98;;;7.60;;
19919;SDS011;10122;50.074;19.920;2023-06-14T02:19:49;11.68;;;7.68;;
19919;SDS011;10122;50.074;19.920;2023-06-14T02:22:15;11.02;;;6.60;;
19919;SDS011;10122;50.074;19.920;2023-06-14T02:24:41;13.07;;;7.35;;
19919;SDS011;10122;50.074;19.920;2023-06-14T02:27:07;13.13;;;7.40;;
19919;SDS011;10122;50.074;19.920;2023-06-14T02:29:35;11.90;;;6.88;;
19919;SDS011;10122;50.074;19.920;2023-06-14T02:32:01;12.98;;;7.30;;
19919;SDS011;10122;50.074;19.920;2023-06-14T02:34:27;13.65;;;7.43;;
19919;SDS011;10122;50.074;19.920;2023-06-14T02:36:53;11.60;;;6.90;;
19919;SDS011;10122;50.074;19.920;2023-06-14T02:39:20;12.07;;;7.32;;
19919;SDS011;10122;50.074;19.920;2023-06-14T02:41:48;11.82;;;7.20;;
19919;SDS011;10122;50.074;19.920;2023-06-14T02:44:16;13.23;;;7.30;;
19919;SDS011;10122;50.074;19.920;2023-06-14T02:46:42;12.15;;;7.38;;
19919;SDS011;10122;50.074;19.920;2023-06-14T02:49:09;14.10;;;7.50;;
19919;SDS011;10122;50.074;19.920;2023-06-14T02:51:35;10.80;;;6.97;;
19919;SDS011;10122;50.074;19.920;2023-06-14T02:54:01;10.90;;;6.63;;
19919;SDS011;10122;50.074;19.920;2023-06-14T02:56:26;11.38;;;6.53;;
19919;SDS011;10122;50.074;19.920;2023-06-14T02:58:52;11.27;;;6.75;;
19919;SDS011;10122;50.074;19.920;2023-06-14T03:01:18;10.38;;;5.75;;
19919;SDS011;10122;50.074;19.920;2023-06-14T03:03:45;10.98;;;5.72;;
19919;SDS011;10122;50.074;19.920;2023-06-14T03:06:11;9.00;;;5.60;;
19919;SDS011;10122;50.074;19.920;2023-06-14T03:08:39;10.32;;;5.53;;
19919;SDS011;10122;50.074;19.920;2023-06-14T03:11:06;9.98;;;5.90;;
19919;SDS011;10122;50.074;19.920;2023-06-14T03:13:36;10.85;;;5.70;;
19919;SDS011;10122;50.074;19.920;2023-06-14T03:16:03;12.07;;;6.50;;
19919;SDS011;10122;50.074;19.920;2023-06-14T03:18:30;8.30;;;5.13;;
19919;SDS011;10122;50.074;19.920;2023-06-14T03:21:00;9.30;;;5.68;;
19919;SDS011;10122;50.074;19.920;2023-06-14T03:23:27;10.57;;;5.85;;
19919;SDS011;10122;50.074;19.920;2023-06-14T03:25:53;9.38;;;6.07;;
19919;SDS011;10122;50.074;19.920;2023-06-14T03:28:19;9.07;;;5.47;;
19919;SDS011;10122;50.074;19.920;2023-06-14T03:30:45;12.18;;;5.72;;
19919;SDS011;10122;50.074;19.920;2023-06-14T03:33:10;9.30;;;5.55;;
19919;SDS011;10122;50.074;19.920;2023-06-14T03:35:36;8.43;;;5.57;;
19919;SDS011;10122;50.074;19.920;2023-06-14T03:38:02;7.95;;;4.90;;
19919;SDS011;10122;50.074;19.920;2023-06-14T03:40:28;7.32;;;4.85;;
19919;SDS011;10122;50.074;19.920;2023-06-14T03:42:54;10.77;;;5.75;;
19919;SDS011;10122;50.074;19.920;2023-06-14T03:45:20;9.32;;;5.35;;
19919;SDS011;10122;50.074;19.920;2023-06-14T03:47:46;9.02;;;5.05;;
19919;SDS011;10122;50.074;19.920;2023-06-14T03:50:12;9.88;;;5.00;;
19919;SDS011;10122;50.074;19.920;2023-06-14T03:52:38;10.73;;;5.70;;
19919;SDS011;10122;50.074;19.920;2023-06-14T03:55:04;8.93;;;5.40;;
19919;SDS011;10122;50.074;19.920;2023-06-14T03:57:30;8.65;;;5.63;;
19919;SDS011;10122;50.074;19.920;2023-06-14T03:59:56;8.50;;;5.40;;
19919;SDS011;10122;50.074;19.920;2023-06-14T04:02:22;9.50;;;6.10;;
19919;SDS011;10122;50.074;19.920;2023-06-14T04:04:48;8.77;;;5.60;;
19919;SDS011;10122;50.074;19.920;2023-06-14T04:07:15;13.13;;;6.35;;
19919;SDS011;10122;50.074;19.920;2023-06-14T04:09:44;11.98;;;6.55;;
19919;SDS011;10122;50.074;19.920;2023-06-14T04:12:10;11.68;;;6.10;;
19919;SDS011;10122;50.074;19.920;2023-06-14T04:14:39;12.30;;;6.75;;
19919;SDS011;10122;50.074;19.920;2023-06-14T04:17:05;15.32;;;7.97;;
19919;SDS011;10122;50.074;19.920;2023-06-14T04:19:31;11.45;;;7.18;;
19919;SDS011;10122;50.074;19.920;2023-06-14T04:21:58;11.95;;;7.40;;
19919;SDS011;10122;50.074;19.920;2023-06-14T04:24:27;13.05;;;6.57;;
19919;SDS011;10122;50.074;19.920;2023-06-14T04:26:59;12.00;;;7.32;;
19919;SDS011;10122;50.074;19.920;2023-06-14T04:29:28;15.00;;;7.80;;
19919;SDS011;10122;50.074;19.920;2023-06-14T04:31:54;14.80;;;7.68;;
19919;SDS011;10122;50.074;19.920;2023-06-14T04:34:27;14.32;;;8.10;;
19919;SDS011;10122;50.074;19.920;2023-06-14T04:36:59;13.30;;;7.45;;
19919;SDS011;10122;50.074;19.920;2023-06-14T04:39:26;12.88;;;8.10;;
19919;SDS011;10122;50.074;19.920;2023-06-14T04:41:52;14.98;;;8.38;;
19919;SDS011;10122;50.074;19.920;2023-06-14T04:44:21;15.98;;;8.95;;
19919;SDS011;10122;50.074;19.920;2023-06-14T04:46:54;16.38;;;9.52;;
19919;SDS011;10122;50.074;19.920;2023-06-14T04:49:21;17.75;;;9.73;;
19919;SDS011;10122;50.074;19.920;2023-06-14T04:51:48;18.10;;;10.05;;
19919;SDS011;10122;50.074;19.920;2023-06-14T04:54:22;18.90;;;9.90;;
19919;SDS011;10122;50.074;19.920;2023-06-14T04:56:49;16.60;;;9.85;;
19919;SDS011;10122;50.074;19.920;2023-06-14T04:59:15;16.75;;;10.25;;
19919;SDS011;10122;50.074;19.920;2023-06-14T05:01:42;18.15;;;10.85;;
19919;SDS011;10122;50.074;19.920;2023-06-14T05:04:13;19.15;;;10.48;;
19919;SDS011;10122;50.074;19.920;2023-06-14T05:06:40;18.95;;;10.30;;
19919;SDS011;10122;50.074;19.920;2023-06-14T05:09:07;17.40;;;10.50;;
19919;SDS011;10122;50.074;19.920;2023-06-14T05:11:32;19.30;;;9.88;;
19919;SDS011;10122;50.074;19.920;2023-06-14T05:13:58;19.65;;;10.00;;
19919;SDS011;10122;50.074;19.920;2023-06-14T05:16:24;18.10;;;9.82;;
19919;SDS011;10122;50.074;19.920;2023-06-14T05:18:52;17.98;;;11.25;;
19919;SDS011;10122;50.074;19.920;2023-06-14T05:21:18;14.88;;;8.85;;
19919;SDS011;10122;50.074;19.920;2023-06-14T05:23:44;16.48;;;9.15;;
19919;SDS011;10122;50.074;19.920;2023-06-14T05:26:10;15.77;;;9.50;;
19919;SDS011;10122;50.074;19.920;2023-06-14T05:28:36;18.48;;;10.02;;
19919;SDS011;10122;50.074;19.920;2023-06-14T05:31:02;18.20;;;10.02;;
19919;SDS011;10122;50.074;19.920;2023-06-14T05:33:28;15.88;;;10.02;;
19919;SDS011;10122;50.074;19.920;2023-06-14T05:35:54;15.23;;;9.38;;
19919;SDS011;10122;50.074;19.920;2023-06-14T05:38:20;15.27;;;9.55;;
19919;SDS011;10122;50.074;19.920;2023-06-14T05:40:46;20.35;;;10.18;;
19919;SDS011;10122;50.074;19.920;2023-06-14T05:43:12;16.27;;;9.30;;
19919;SDS011;10122;50.074;19.920;2023-06-14T05:45:37;16.70;;;9.88;;
19919;SDS011;10122;50.074;19.920;2023-06-14T05:48:03;17.27;;;9.25;;
19919;SDS011;10122;50.074;19.920;2023-06-14T05:50:29;15.10;;;9.52;;
19919;SDS011;10122;50.074;19.920;2023-06-14T05:52:55;19.38;;;10.18;;
19919;SDS011;10122;50.074;19.920;2023-06-14T05:55:21;14.75;;;8.70;;
19919;SDS011;10122;50.074;19.920;2023-06-14T05:57:46;14.38;;;9.00;;
19919;SDS011;10122;50.074;19.920;2023-06-14T06:00:13;16.77;;;9.05;;
19919;SDS011;10122;50.074;19.920;2023-06-14T06:02:43;13.43;;;8.45;;
19919;SDS011;10122;50.074;19.920;2023-06-14T06:05:10;13.68;;;8.70;;
19919;SDS011;10122;50.074;19.920;2023-06-14T06:07:36;15.88;;;8.85;;
19919;SDS011;10122;50.074;19.920;2023-06-14T06:10:03;16.38;;;9.27;;
19919;SDS011;10122;50.074;19.920;2023-06-14T06:12:30;14.55;;;8.50;;
19919;SDS011;10122;50.074;19.920;2023-06-14T06:14:56;18.08;;;8.85;;
19919;SDS011;10122;50.074;19.920;2023-06-14T06:17:22;14.30;;;8.57;;
19919;SDS011;10122;50.074;19.920;2023-06-14T06:19:47;14.43;;;8.75;;
19919;SDS011;10122;50.074;19.920;2023-06-14T06:22:13;14.07;;;8.40;;
19919;SDS011;10122;50.074;19.920;2023-06-14T06:24:39;13.70;;;8.40;;
19919;SDS011;10122;50.074;19.920;2023-06-14T06:27:05;17.23;;;8.65;;
19919;SDS011;10122;50.074;19.920;2023-06-14T06:29:33;11.60;;;6.95;;
19919;SDS011;10122;50.074;19.920;2023-06-14T06:31:59;9.93;;;6.22;;
19919;SDS011;10122;50.074;19.920;2023-06-14T06:34:26;8.55;;;5.15;;
19919;SDS011;10122;50.074;19.920;2023-06-14T06:36:52;5.97;;;3.83;;
19919;SDS011;10122;50.074;19.920;2023-06-14T06:39:18;5.63;;;4.18;;
19919;SDS011;10122;50.074;19.920;2023-06-14T06:41:44;5.80;;;3.90;;
19919;SDS011;10122;50.074;19.920;2023-06-14T06:44:09;5.65;;;3.78;;
19919;SDS011;10122;50.074;19.920;2023-06-14T06:46:36;6.45;;;3.80;;
19919;SDS011;10122;50.074;19.920;2023-06-14T06:49:09;6.00;;;4.00;;
19919;SDS011;10122;50.074;19.920;2023-06-14T06:51:36;5.45;;;4.20;;
19919;SDS011;10122;50.074;19.920;2023-06-14T06:54:02;5.97;;;3.60;;
19919;SDS011;10122;50.074;19.920;2023-06-14T06:56:28;4.00;;;3.05;;
19919;SDS011;10122;50.074;19.920;2023-06-14T06:58:56;3.55;;;2.35;;
19919;SDS011;10122;50.074;19.920;2023-06-14T07:01:22;3.15;;;2.17;;
19919;SDS011;10122;50.074;19.920;2023-06-14T07:03:49;2.78;;;2.00;;
19919;SDS011;10122;50.074;19.920;2023-06-14T07:06:15;2.65;;;1.90;;
19919;SDS011;10122;50.074;19.920;2023-06-14T07:08:43;4.25;;;2.25;;
19919;SDS011;10122;50.074;19.920;2023-06-14T07:11:09;3.60;;;1.90;;
19919;SDS011;10122;50.074;19.920;2023-06-14T07:13:35;2.45;;;1.60;;
19919;SDS011;10122;50.074;19.920;2023-06-14T07:16:01;3.00;;;2.08;;
19919;SDS011;10122;50.074;19.920;2023-06-14T07:18:27;2.08;;;1.88;;
19919;SDS011;10122;50.074;19.920;2023-06-14T07:20:53;2.33;;;1.80;;
19919;SDS011;10122;50.074;19.920;2023-06-14T07:23:20;1.85;;;1.70;;
19919;SDS011;10122;50.074;19.920;2023-06-14T07:25:46;2.17;;;1.95;;
19919;SDS011;10122;50.074;19.920;2023-06-14T07:28:11;3.60;;;1.95;;
19919;SDS011;10122;50.074;19.920;2023-06-14T07:30:37;2.95;;;2.10;;
19919;SDS011;10122;50.074;19.920;2023-06-14T07:33:03;2.38;;;2.10;;
19919;SDS011;10122;50.074;19.920;2023-06-14T07:35:29;2.35;;;2.13;;
19919;SDS011;10122;50.074;19.920;2023-06-14T07:37:55;2.90;;;2.40;;
19919;SDS011;10122;50.074;19.920;2023-06-14T07:40:20;3.72;;;2.90;;
19919;SDS011;10122;50.074;19.920;2023-06-14T07:42:46;3.05;;;2.60;;
19919;SDS011;10122;50.074;19.920;2023-06-14T07:45:15;2.35;;;2.15;;
19919;SDS011;10122;50.074;19.920;2023-06-14T07:47:41;3.00;;;2.35;;
19919;SDS011;10122;50.074;19.920;2023-06-14T07:50:08;3.85;;;2.92;;
19919;SDS011;10122;50.074;19.920;2023-06-14T07:52:34;3.95;;;2.47;;
19919;SDS011;10122;50.074;19.920;2023-06-14T07:54:59;4.32;;;2.70;;
19919;SDS011;10122;50.074;19.920;2023-06-14T07:57:25;2.60;;;2.10;;
19919;SDS011;10122;50.074;19.920;2023-06-14T07:59:51;3.58;;;2.22;;
19919;SDS011;10122;50.074;19.920;2023-06-14T08:02:17;3.58;;;2.50;;
19919;SDS011;10122;50.074;19.920;2023-06-14T08:04:43;3.60;;;2.78;;
19919;SDS011;10122;50.074;19.920;2023-06-14T08:07:09;3.03;;;2.47;;
19919;SDS011;10122;50.074;19.920;2023-06-14T08:09:35;2.25;;;2.05;;
19919;SDS011;10122;50.074;19.920;2023-06-14T08:12:04;3.75;;;2.03;;
19919;SDS011;10122;50.074;19.920;2023-06-14T08:14:32;2.42;;;2.17;;
19919;SDS011;10122;50.074;19.920;2023-06-14T08:16:58;3.30;;;2.40;;
19919;SDS011;10122;50.074;19.920;2023-06-14T08:19:24;3.13;;;2.42;;
19919;SDS011;10122;50.074;19.920;2023-06-14T08:21:50;5.70;;;2.50;;
19919;SDS011;10122;50.074;19.920;2023-06-14T08:24:16;4.78;;;2.90;;
19919;SDS011;10122;50.074;19.920;2023-06-14T08:26:42;3.55;;;2.78;;
19919;SDS011;10122;50.074;19.920;2023-06-14T08:29:08;3.53;;;2.90;;
19919;SDS011;10122;50.074;19.920;2023-06-14T08:31:34;5.38;;;2.70;;
19919;SDS011;10122;50.074;19.920;2023-06-14T08:34:00;4.28;;;2.63;;
19919;SDS011;10122;50.074;19.920;2023-06-14T08:36:25;3.88;;;2.55;;
19919;SDS011;10122;50.074;19.920;2023-06-14T08:38:51;4.30;;;3.25;;
19919;SDS011;10122;50.074;19.920;2023-06-14T08:41:20;3.90;;;3.38;;
19919;SDS011;10122;50.074;19.920;2023-06-14T08:43:48;4.75;;;2.97;;
19919;SDS011;10122;50.074;19.920;2023-06-14T08:46:14;3.80;;;3.15;;
19919;SDS011;10122;50.074;19.920;2023-06-14T08:48:45;3.50;;;2.95;;
19919;SDS011;10122;50.074;19.920;2023-06-14T08:51:12;4.20;;;3.47;;
19919;SDS011;10122;50.074;19.920;2023-06-14T08:53:41;5.85;;;3.60;;
19919;SDS011;10122;50.074;19.920;2023-06-14T08:56:09;5.68;;;3.65;;
19919;SDS011;10122;50.074;19.920;2023-06-14T08:58:47;4.40;;;3.70;;
19919;SDS011;10122;50.074;19.920;2023-06-14T09:01:14;6.18;;;4.05;;
19919;SDS011;10122;50.074;19.920;2023-06-14T09:03:42;4.78;;;3.72;;
19919;SDS011;10122;50.074;19.920;2023-06-14T09:06:09;5.82;;;4.30;;
19919;SDS011;10122;50.074;19.920;2023-06-14T09:08:47;5.55;;;4.30;;
19919;SDS011;10122;50.074;19.920;2023-06-14T09:11:14;7.68;;;4.63;;
19919;SDS011;10122;50.074;19.920;2023-06-14T09:13:41;7.55;;;4.97;;
19919;SDS011;10122;50.074;19.920;2023-06-14T09:16:08;6.63;;;4.72;;
19919;SDS011;10122;50.074;19.920;2023-06-14T09:18:34;6.35;;;4.85;;
19919;SDS011;10122;50.074;19.920;2023-06-14T09:21:01;7.32;;;4.38;;
19919;SDS011;10122;50.074;19.920;2023-06-14T09:23:26;7.22;;;4.53;;
19919;SDS011;10122;50.074;19.920;2023-06-14T09:25:52;6.03;;;4.18;;
19919;SDS011;10122;50.074;19.920;2023-06-14T09:28:19;5.57;;;4.68;;
19919;SDS011;10122;50.074;19.920;2023-06-14T09:30:47;5.97;;;4.55;;
19919;SDS011;10122;50.074;19.920;2023-06-14T09:33:16;8.05;;;4.80;;
19919;SDS011;10122;50.074;19.920;2023-06-14T09:35:45;5.20;;;4.68;;
19919;SDS011;10122;50.074;19.920;2023-06-14T09:38:11;6.00;;;4.65;;
19919;SDS011;10122;50.074;19.920;2023-06-14T09:40:37;5.38;;;4.80;;
19919;SDS011;10122;50.074;19.920;2023-06-14T09:43:06;5.85;;;4.82;;
19919;SDS011;10122;50.074;19.920;2023-06-14T09:45:34;7.78;;;5.38;;
19919;SDS011;10122;50.074;19.920;2023-06-14T09:48:00;6.30;;;5.00;;
19919;SDS011;10122;50.074;19.920;2023-06-14T09:50:27;5.63;;;4.70;;
19919;SDS011;10122;50.074;19.920;2023-06-14T09:52:52;6.38;;;5.07;;
19919;SDS011;10122;50.074;19.920;2023-06-14T09:55:24;6.95;;;5.32;;
19919;SDS011;10122;50.074;19.920;2023-06-14T09:57:54;7.35;;;5.07;;
19919;SDS011;10122;50.074;19.920;2023-06-14T10:00:21;5.55;;;4.88;;
19919;SDS011;10122;50.074;19.920;2023-06-14T10:02:49;6.30;;;5.10;;
19919;SDS011;10122;50.074;19.920;2023-06-14T10:05:22;5.88;;;5.20;;
19919;SDS011;10122;50.074;19.920;2023-06-14T10:08:04;8.68;;;5.80;;
19919;SDS011;10122;50.074;19.920;2023-06-14T10:10:33;6.75;;;5.03;;
19919;SDS011;10122;50.074;19.920;2023-06-14T10:12:59;6.75;;;5.25;;
19919;SDS011;10122;50.074;19.920;2023-06-14T10:18:09;9.52;;;6.45;;
19919;SDS011;10122;50.074;19.920;2023-06-14T10:20:55;7.55;;;5.78;;
19919;SDS011;10122;50.074;19.920;2023-06-14T10:23:50;9.07;;;6.82;;
19919;SDS011;10122;50.074;19.920;2023-06-14T10:26:20;10.13;;;6.63;;
19919;SDS011;10122;50.074;19.920;2023-06-14T10:29:00;9.48;;;5.65;;
19919;SDS011;10122;50.074;19.920;2023-06-14T10:31:41;6.38;;;5.35;;
19919;SDS011;10122;50.074;19.920;2023-06-14T10:34:09;6.88;;;6.18;;
19919;SDS011;10122;50.074;19.920;2023-06-14T10:36:36;8.07;;;6.45;;
19919;SDS011;10122;50.074;19.920;2023-06-14T10:41:33;7.88;;;5.75;;
19919;SDS011;10122;50.074;19.920;2023-06-14T10:44:45;7.18;;;6.35;;
19919;SDS011;10122;50.074;19.920;2023-06-14T10:46:53;7.50;;;6.30;;
19919;SDS011;10122;50.074;19.920;2023-06-14T10:49:19;7.15;;;6.07;;
19919;SDS011;10122;50.074;19.920;2023-06-14T10:51:46;6.85;;;5.80;;
19919;SDS011;10122;50.074;19.920;2023-06-14T10:54:15;6.38;;;5.55;;
19919;SDS011;10122;50.074;19.920;2023-06-14T10:56:51;7.97;;;6.13;;
19919;SDS011;10122;50.074;19.920;2023-06-14T10:59:19;8.55;;;5.95;;
19919;SDS011;10122;50.074;19.920;2023-06-14T11:01:58;6.45;;;5.53;;
19919;SDS011;10122;50.074;19.920;2023-06-14T11:04:50;7.00;;;5.82;;
19919;SDS011;10122;50.074;19.920;2023-06-14T11:12:51;7.28;;;5.32;;
19919;SDS011;10122;50.074;19.920;2023-06-14T11:15:19;6.93;;;5.80;;
19919;SDS011;10122;50.074;19.920;2023-06-14T11:17:51;6.57;;;5.10;;
19919;SDS011;10122;50.074;19.920;2023-06-14T11:20:23;5.85;;;4.78;;
19919;SDS011;10122;50.074;19.920;2023-06-14T11:22:51;6.88;;;5.45;;
19919;SDS011;10122;50.074;19.920;2023-06-14T11:25:18;5.88;;;5.20;;
19919;SDS011;10122;50.074;19.920;2023-06-14T11:27:44;6.10;;;5.25;;
19919;SDS011;10122;50.074;19.920;2023-06-14T11:30:10;5.85;;;5.25;;
19919;SDS011;10122;50.074;19.920;2023-06-14T11:32:38;7.50;;;5.30;;
19919;SDS011;10122;50.074;19.920;2023-06-14T11:35:04;6.68;;;5.72;;
19919;SDS011;10122;50.074;19.920;2023-06-14T11:37:31;6.60;;;5.30;;
19919;SDS011;10122;50.074;19.920;2023-06-14T11:40:00;6.00;;;5.40;;
19919;SDS011;10122;50.074;19.920;2023-06-14T11:42:28;6.05;;;5.20;;
19919;SDS011;10122;50.074;19.920;2023-06-14T11:44:55;7.25;;;5.78;;
19919;SDS011;10122;50.074;19.920;2023-06-14T11:47:21;8.48;;;5.60;;
19919;SDS011;10122;50.074;19.920;2023-06-14T11:49:47;7.20;;;5.88;;
19919;SDS011;10122;50.074;19.920;2023-06-14T11:52:13;7.15;;;5.95;;
19919;SDS011;10122;50.074;19.920;2023-06-14T11:54:39;7.15;;;6.03;;
19919;SDS011;10122;50.074;19.920;2023-06-14T11:57:08;8.30;;;5.80;;
19919;SDS011;10122;50.074;19.920;2023-06-14T11:59:38;9.57;;;5.95;;
19919;SDS011;10122;50.074;19.920;2023-06-14T12:02:05;7.97;;;5.95;;
19919;SDS011;10122;50.074;19.920;2023-06-14T12:04:32;6.85;;;5.65;;
19919;SDS011;10122;50.074;19.920;2023-06-14T12:07:08;8.85;;;6.10;;
19919;SDS011;10122;50.074;19.920;2023-06-14T12:09:40;6.72;;;5.80;;
19919;SDS011;10122;50.074;19.920;2023-06-14T12:12:18;6.70;;;5.32;;
19919;SDS011;10122;50.074;19.920;2023-06-14T12:14:46;8.80;;;5.13;;
19919;SDS011;10122;50.074;19.920;2023-06-14T12:17:12;6.13;;;5.10;;
19919;SDS011;10122;50.074;19.920;2023-06-14T12:19:41;7.75;;;5.28;;
19919;SDS011;10122;50.074;19.920;2023-06-14T12:22:12;8.60;;;5.40;;
19919;SDS011;10122;50.074;19.920;2023-06-14T12:24:38;7.28;;;4.90;;
19919;SDS011;10122;50.074;19.920;2023-06-14T12:27:07;6.47;;;4.80;;
19919;SDS011;10122;50.074;19.920;2023-06-14T12:29:33;7.07;;;4.60;;
19919;SDS011;10122;50.074;19.920;2023-06-14T12:31:59;5.53;;;4.60;;
19919;SDS011;10122;50.074;19.920;2023-06-14T12:34:25;7.47;;;4.65;;
19919;SDS011;10122;50.074;19.920;2023-06-14T12:36:52;6.47;;;4.65;;
19919;SDS011;10122;50.074;19.920;2023-06-14T12:39:21;4.70;;;4.05;;
19919;SDS011;10122;50.074;19.920;2023-06-14T12:41:47;5.80;;;3.95;;
19919;SDS011;10122;50.074;19.920;2023-06-14T12:44:14;5.43;;;4.25;;
19919;SDS011;10122;50.074;19.920;2023-06-14T12:46:41;5.55;;;4.32;;
19919;SDS011;10122;50.074;19.920;2023-06-14T12:49:08;4.60;;;3.80;;
19919;SDS011;10122;50.074;19.920;2023-06-14T12:51:35;5.82;;;4.28;;
19919;SDS011;10122;50.074;19.920;2023-06-14T12:54:02;5.25;;;4.03;;
19919;SDS011;10122;50.074;19.920;2023-06-14T12:56:27;4.65;;;3.85;;
19919;SDS011;10122;50.074;19.920;2023-06-14T12:58:53;5.00;;;3.75;;
19919;SDS011;10122;50.074;19.920;2023-06-14T13:01:19;5.32;;;3.80;;
19919;SDS011;10122;50.074;19.920;2023-06-14T13:03:46;5.70;;;4.00;;
19919;SDS011;10122;50.074;19.920;2023-06-14T13:06:17;5.32;;;3.63;;
19919;SDS011;10122;50.074;19.920;2023-06-14T13:08:43;5.40;;;3.55;;
19919;SDS011;10122;50.074;19.920;2023-06-14T13:11:09;4.78;;;3.90;;
19919;SDS011;10122;50.074;19.920;2023-06-14T13:13:35;4.88;;;3.70;;
19919;SDS011;10122;50.074;19.920;2023-06-14T13:16:00;5.55;;;4.05;;
19919;SDS011;10122;50.074;19.920;2023-06-14T13:18:26;5.07;;;3.83;;
19919;SDS011;10122;50.074;19.920;2023-06-14T13:20:51;5.65;;;3.70;;
19919;SDS011;10122;50.074;19.920;2023-06-14T13:23:17;4.57;;;3.58;;
19919;SDS011;10122;50.074;19.920;2023-06-14T13:25:43;6.05;;;4.07;;
19919;SDS011;10122;50.074;19.920;2023-06-14T13:28:09;4.25;;;3.40;;
19919;SDS011;10122;50.074;19.920;2023-06-14T13:30:34;4.75;;;3.60;;
19919;SDS011;10122;50.074;19.920;2023-06-14T13:33:00;6.18;;;3.75;;
19919;SDS011;10122;50.074;19.920;2023-06-14T13:35:26;5.45;;;3.63;;
19919;SDS011;10122;50.074;19.920;2023-06-14T13:37:52;4.28;;;3.38;;
19919;SDS011;10122;50.074;19.920;2023-06-14T13:40:18;6.78;;;3.85;;
19919;SDS011;10122;50.074;19.920;2023-06-14T13:42:44;5.10;;;3.50;;
19919;SDS011;10122;50.074;19.920;2023-06-14T13:45:11;5.60;;;3.80;;
19919;SDS011;10122;50.074;19.920;2023-06-14T13:47:38;4.63;;;3.40;;
19919;SDS011;10122;50.074;19.920;2023-06-14T13:50:04;4.47;;;3.22;;
19919;SDS011;10122;50.074;19.920;2023-06-14T13:52:31;5.75;;;3.63;;
19919;SDS011;10122;50.074;19.920;2023-06-14T13:54:56;4.28;;;3.20;;
19919;SDS011;10122;50.074;19.920;2023-06-14T13:57:22;6.55;;;3.50;;
19919;SDS011;10122;50.074;19.920;2023-06-14T13:59:48;5.07;;;3.70;;
19919;SDS011;10122;50.074;19.920;2023-06-14T14:02:14;5.57;;;3.70;;
19919;SDS011;10122;50.074;19.920;2023-06-14T14:04:40;5.13;;;3.78;;
19919;SDS011;10122;50.074;19.920;2023-06-14T14:07:06;5.38;;;3.55;;
19919;SDS011;10122;50.074;19.920;2023-06-14T14:09:32;5.13;;;3.35;;
19919;SDS011;10122;50.074;19.920;2023-06-14T14:12:02;3.72;;;3.20;;
19919;SDS011;10122;50.074;19.920;2023-06-14T14:14:29;4.47;;;3.42;;
19919;SDS011;10122;50.074;19.920;2023-06-14T14:16:57;5.65;;;3.70;;
19919;SDS011;10122;50.074;19.920;2023-06-14T14:19:23;4.30;;;3.25;;
19919;SDS011;10122;50.074;19.920;2023-06-14T14:21:49;5.10;;;3.47;;
19919;SDS011;10122;50.074;19.920;2023-06-14T14:24:15;3.42;;;2.97;;
19919;SDS011;10122;50.074;19.920;2023-06-14T14:26:41;4.45;;;3.40;;
19919;SDS011;10122;50.074;19.920;2023-06-14T14:29:07;5.22;;;3.40;;
19919;SDS011;10122;50.074;19.920;2023-06-14T14:31:36;4.72;;;3.25;;
19919;SDS011;10122;50.074;19.920;2023-06-14T14:34:02;4.85;;;3.17;;
19919;SDS011;10122;50.074;19.920;2023-06-14T14:36:27;6.57;;;3.40;;
19919;SDS011;10122;50.074;19.920;2023-06-14T14:38:53;5.13;;;3.22;;
19919;SDS011;10122;50.074;19.920;2023-06-14T14:41:19;5.28;;;3.67;;
19919;SDS011;10122;50.074;19.920;2023-06-14T14:43:45;5.03;;;3.70;;